Frankston Lake, Texas
Current Conditions -  °F | °C
As of 3:15 PM on Thursday 20 Nov 2014 (Local Time) from KPSN Reporting Station
Broken Clouds Broken Clouds  
Wind Chill: 69°   Ceiling: 6000
Heat Index: 69°   Visibility: 10mi
Dew Point: 57°   Wind: 7mph
Humidity: 67%   Direction: 160°SSE
Pressure: 30.06"   Gusts: NA
Location:  32.0056°N, 95.5543°W
Report Text: KPSN 202115Z AUTO 16006KT 10SM SCT041 SCT049 BKN060 20/13 A3006 RMK AO2 T02050141
Loading
Personal Weather Stations






























Interactive Weather Map New forecast layout! Learn more

10-Day Weather Forecast

Advertisements
Track Severe Weather on mobile